Time;durP1;ratioP1;P1;durP2;ratioP2;P2;SDS_P1;SDS_P2;PMS_P1;PMS_P2;Temp;Humidity;BMP_temperature;BMP_pressure;BME280_temperature;BME280_humidity;BME280_pressure;Samples;Min_cycle;Max_cycle;Signal;HPM_P1;HPM_P2
2021/11/25 00:01:03;;;;;;;23.43;15.33;;;2.70;99.90;;;;;;5034051;28;20431;-69
2021/11/25 00:03:29;;;;;;;23.77;14.53;;;2.70;99.90;;;;;;5033861;28;20629;-70
2021/11/25 00:05:55;;;;;;;23.30;14.40;;;2.70;99.90;;;;;;5034324;28;20425;-70
2021/11/25 00:08:20;;;;;;;22.10;15.47;;;2.70;99.90;;;;;;5032444;28;20193;-69
2021/11/25 00:10:46;;;;;;;24.10;15.13;;;2.70;99.90;;;;;;5034075;28;20277;-70
2021/11/25 00:13:12;;;;;;;22.03;14.77;;;2.60;99.90;;;;;;5033915;28;20663;-70
2021/11/25 00:15:39;;;;;;;23.27;14.30;;;2.60;99.90;;;;;;5033896;28;20265;-70
2021/11/25 00:18:04;;;;;;;20.00;14.13;;;2.60;99.90;;;;;;5033756;28;20786;-70
2021/11/25 00:20:30;;;;;;;19.93;13.93;;;2.70;99.90;;;;;;5033809;28;20441;-70
2021/11/25 00:22:56;;;;;;;25.50;15.13;;;2.70;99.90;;;;;;5033847;28;20224;-69
2021/11/25 00:25:22;;;;;;;22.83;14.97;;;2.80;99.90;;;;;;5033699;28;21033;-69
2021/11/25 00:27:48;;;;;;;21.17;14.23;;;2.90;99.90;;;;;;5033435;28;20186;-70
2021/11/25 00:30:14;;;;;;;23.93;15.40;;;2.80;99.90;;;;;;5033549;28;20457;-70
2021/11/25 00:32:40;;;;;;;21.20;13.83;;;2.90;99.90;;;;;;5033526;28;20203;-70
2021/11/25 00:35:07;;;;;;;26.90;15.47;;;2.80;99.90;;;;;;5032946;28;20427;-70
2021/11/25 00:37:33;;;;;;;24.20;14.83;;;2.80;99.90;;;;;;5033109;28;20432;-69
2021/11/25 00:39:59;;;;;;;22.27;14.37;;;2.80;99.90;;;;;;5033691;28;20421;-69
2021/11/25 00:42:25;;;;;;;21.83;14.07;;;2.70;99.90;;;;;;5027175;28;21031;-69
2021/11/25 00:44:50;;;;;;;21.03;14.13;;;2.60;99.90;;;;;;5019152;28;20195;-69
2021/11/25 00:47:16;;;;;;;23.73;15.07;;;2.60;99.90;;;;;;5025699;28;20443;-70
2021/11/25 00:49:41;;;;;;;23.87;15.50;;;2.70;99.90;;;;;;5032691;28;20197;-70
2021/11/25 00:52:07;;;;;;;21.20;14.00;;;2.80;99.90;;;;;;5026350;28;20736;-69
2021/11/25 00:54:32;;;;;;;27.97;15.97;;;2.80;99.90;;;;;;5028404;28;20178;-69
2021/11/25 00:56:58;;;;;;;27.23;14.93;;;2.90;99.90;;;;;;5029511;28;20194;-69
2021/11/25 00:59:23;;;;;;;24.10;16.97;;;2.70;99.90;;;;;;5033095;28;20183;-70
2021/11/25 01:01:49;;;;;;;23.53;15.37;;;2.60;99.90;;;;;;5027518;28;20182;-69
2021/11/25 01:04:14;;;;;;;23.80;16.17;;;2.50;99.90;;;;;;5032982;28;20636;-70
2021/11/25 01:06:40;;;;;;;26.80;15.10;;;2.60;99.90;;;;;;5033037;28;20171;-69
2021/11/25 01:09:05;;;;;;;24.47;16.27;;;2.50;99.90;;;;;;5032499;28;20222;-69
2021/11/25 01:11:31;;;;;;;27.97;15.90;;;2.50;99.90;;;;;;5032140;28;20209;-69
2021/11/25 01:13:57;;;;;;;30.13;16.67;;;2.50;99.90;;;;;;5037105;28;20678;-70
2021/11/25 01:16:23;;;;;;;26.40;16.13;;;2.50;99.90;;;;;;5041674;28;20174;-70
2021/11/25 01:18:49;;;;;;;22.97;14.97;;;2.50;99.90;;;;;;5032340;28;20166;-69
2021/11/25 01:21:16;;;;;;;24.30;14.87;;;2.60;99.90;;;;;;5031612;28;20178;-69
2021/11/25 01:23:42;;;;;;;23.00;15.07;;;2.50;99.90;;;;;;5032401;28;20522;-69
2021/11/25 01:26:07;;;;;;;25.30;15.67;;;2.50;99.90;;;;;;5031873;28;21100;-70
2021/11/25 01:28:33;;;;;;;25.17;16.00;;;2.50;99.90;;;;;;5032431;28;20473;-70
2021/11/25 01:31:00;;;;;;;24.50;13.90;;;2.50;99.90;;;;;;5032440;28;20946;-70
2021/11/25 01:33:27;;;;;;;21.77;12.83;;;2.50;99.90;;;;;;5032360;28;20194;-69
2021/11/25 01:35:54;;;;;;;23.07;15.03;;;2.60;99.90;;;;;;5032412;28;20490;-69
2021/11/25 01:38:21;;;;;;;27.43;16.00;;;2.60;99.90;;;;;;5032099;28;20416;-69
2021/11/25 01:40:47;;;;;;;20.63;15.50;;;2.40;99.90;;;;;;5032315;28;20473;-69
2021/11/25 01:43:13;;;;;;;22.97;14.80;;;2.40;99.90;;;;;;5031110;28;20523;-69
2021/11/25 01:45:39;;;;;;;23.23;15.90;;;2.30;99.90;;;;;;5029954;28;20452;-70
2021/11/25 01:48:06;;;;;;;21.30;14.73;;;2.20;99.90;;;;;;5031836;28;20217;-70
2021/11/25 01:50:33;;;;;;;27.27;15.40;;;2.30;99.90;;;;;;5032098;28;21192;-70
2021/11/25 01:52:59;;;;;;;20.00;14.37;;;2.30;99.90;;;;;;5031979;28;20531;-70
2021/11/25 01:55:26;;;;;;;23.07;15.07;;;2.30;99.90;;;;;;5031305;28;20522;-70
2021/11/25 01:57:52;;;;;;;22.77;15.60;;;2.40;99.90;;;;;;5031689;28;20930;-70
2021/11/25 02:00:21;;;;;;;24.00;14.50;;;2.40;99.90;;;;;;5030573;28;20461;-69
2021/11/25 02:02:48;;;;;;;27.93;15.70;;;2.50;99.90;;;;;;5031452;28;20835;-70
2021/11/25 02:05:14;;;;;;;28.20;15.50;;;2.50;99.90;;;;;;5031711;28;20516;-69
2021/11/25 02:07:40;;;;;;;26.43;13.37;;;2.40;99.90;;;;;;5031138;28;20586;-69
2021/11/25 02:10:07;;;;;;;22.87;15.63;;;2.40;99.90;;;;;;5031041;28;20328;-70
2021/11/25 02:12:32;;;;;;;25.70;16.07;;;2.30;99.90;;;;;;5031530;28;20453;-70
2021/11/25 02:14:58;;;;;;;23.37;16.10;;;2.30;99.90;;;;;;5025306;28;20436;-69
2021/11/25 02:17:24;;;;;;;27.17;14.93;;;2.40;99.90;;;;;;5025632;28;20228;-70
2021/11/25 02:19:50;;;;;;;21.03;14.47;;;2.50;99.90;;;;;;5026376;28;20179;-70
2021/11/25 02:22:17;;;;;;;25.20;16.50;;;2.50;99.90;;;;;;5024022;28;20205;-69
2021/11/25 02:24:43;;;;;;;22.37;14.37;;;2.60;99.90;;;;;;5026645;28;20446;-69
2021/11/25 02:27:08;;;;;;;21.60;14.77;;;2.60;99.90;;;;;;5028688;28;20508;-69
2021/11/25 02:29:34;;;;;;;24.77;16.60;;;2.70;99.90;;;;;;5030811;28;20211;-69
2021/11/25 02:31:59;;;;;;;24.20;15.07;;;2.70;99.90;;;;;;5031306;28;20198;-69
2021/11/25 02:34:25;;;;;;;24.33;15.70;;;2.60;99.90;;;;;;5030906;28;20179;-69
2021/11/25 02:36:51;;;;;;;27.73;16.67;;;2.50;99.90;;;;;;5031435;28;20253;-70
2021/11/25 02:39:18;;;;;;;26.03;17.87;;;2.50;99.90;;;;;;5030579;28;20178;-70
2021/11/25 02:41:44;;;;;;;24.07;15.30;;;2.60;99.90;;;;;;5031755;28;20195;-70
2021/11/25 02:44:09;;;;;;;22.97;16.13;;;2.60;99.90;;;;;;5019976;28;20944;-70
2021/11/25 02:46:35;;;;;;;26.00;15.10;;;2.60;99.90;;;;;;5012051;28;20249;-70
2021/11/25 02:49:02;;;;;;;24.10;16.53;;;2.60;99.90;;;;;;5019255;28;20183;-70
2021/11/25 02:51:31;;;;;;;24.40;16.10;;;2.60;99.90;;;;;;5011733;28;20206;-69
2021/11/25 02:53:58;;;;;;;27.97;16.43;;;2.70;99.90;;;;;;5019564;28;20461;-69
2021/11/25 02:56:27;;;;;;;25.87;16.60;;;2.80;99.90;;;;;;5020238;28;20515;-70
2021/11/25 02:58:55;;;;;;;23.63;16.43;;;2.70;99.90;;;;;;5033665;28;20424;-70
2021/11/25 03:01:33;;;;;;;26.67;16.70;;;2.70;99.90;;;;;;5035108;28;20428;-70
2021/11/25 03:09:55;;;;;;;25.90;15.63;;;2.70;99.90;;;;;;5005866;28;20480;-70
2021/11/25 03:12:21;;;;;;;21.10;14.33;;;2.70;99.90;;;;;;4996008;28;21015;-69
2021/11/25 03:14:46;;;;;;;26.17;15.57;;;2.80;99.90;;;;;;4997692;28;20637;-69
2021/11/25 03:17:12;;;;;;;28.50;17.07;;;2.90;99.90;;;;;;4993675;28;20629;-70
2021/11/25 03:19:39;;;;;;;30.10;16.87;;;2.80;99.90;;;;;;5020652;23;20233;-66
2021/11/25 03:22:04;;;;;;;24.77;15.97;;;2.80;99.90;;;;;;5017692;28;20225;-66
2021/11/25 03:24:30;;;;;;;26.40;16.90;;;2.70;99.90;;;;;;5019369;28;20456;-66
2021/11/25 03:26:55;;;;;;;23.83;15.70;;;2.60;99.90;;;;;;5022398;28;20178;-66
2021/11/25 03:29:21;;;;;;;21.80;15.13;;;2.60;99.90;;;;;;5026357;28;20224;-66
2021/11/25 03:31:47;;;;;;;23.73;16.30;;;2.50;99.90;;;;;;5034563;28;20698;-65
2021/11/25 03:34:12;;;;;;;25.00;16.63;;;2.40;99.90;;;;;;5016063;28;20692;-66
2021/11/25 03:36:38;;;;;;;26.50;15.90;;;2.30;99.90;;;;;;5020072;28;20240;-66
2021/11/25 03:39:03;;;;;;;29.63;16.50;;;2.30;99.90;;;;;;5031476;28;20208;-66
2021/11/25 03:41:29;;;;;;;28.23;15.77;;;2.30;99.90;;;;;;5022028;28;20205;-66
2021/11/25 03:43:57;;;;;;;27.00;15.57;;;2.30;99.90;;;;;;5014686;28;20182;-66
2021/11/25 03:46:22;;;;;;;30.13;16.77;;;2.30;99.90;;;;;;5033748;28;20257;-66
2021/11/25 03:48:49;;;;;;;26.03;15.40;;;2.20;99.90;;;;;;5032739;28;20456;-65
2021/11/25 03:51:15;;;;;;;26.60;15.83;;;2.30;99.90;;;;;;5034150;28;20461;-66
2021/11/25 03:53:43;;;;;;;26.23;18.20;;;2.40;99.90;;;;;;5019871;28;20430;-66
2021/11/25 03:56:09;;;;;;;22.30;14.90;;;2.40;99.90;;;;;;5015810;28;20179;-66
2021/11/25 03:58:34;;;;;;;22.47;14.90;;;2.30;99.90;;;;;;5024050;28;20457;-66
2021/11/25 04:01:00;;;;;;;26.80;16.90;;;2.20;99.90;;;;;;5025463;28;20624;-66
2021/11/25 04:03:26;;;;;;;25.43;16.50;;;2.10;99.90;;;;;;5014274;28;20219;-66
2021/11/25 04:05:52;;;;;;;25.37;15.53;;;2.20;99.90;;;;;;5008999;28;20672;-66
2021/11/25 04:08:18;;;;;;;27.73;15.27;;;2.20;99.90;;;;;;5013630;28;20264;-66
2021/11/25 04:10:44;;;;;;;26.10;16.60;;;2.30;99.90;;;;;;5012339;28;20499;-66
2021/11/25 04:13:10;;;;;;;24.73;15.37;;;2.40;99.90;;;;;;5015053;28;20760;-66
2021/11/25 04:15:35;;;;;;;27.87;16.10;;;2.50;99.90;;;;;;5032773;28;20453;-66
2021/11/25 04:18:01;;;;;;;27.57;16.50;;;2.40;99.90;;;;;;5024909;28;20186;-66
2021/11/25 04:20:27;;;;;;;24.50;16.63;;;2.40;99.90;;;;;;4999456;28;20412;-66
2021/11/25 04:22:53;;;;;;;23.77;15.60;;;2.20;99.90;;;;;;5006901;28;20659;-66
2021/11/25 04:25:19;;;;;;;24.00;15.60;;;2.10;99.90;;;;;;5004704;28;20277;-66
2021/11/25 04:27:45;;;;;;;27.70;17.87;;;2.10;99.90;;;;;;5014084;28;20525;-66
2021/11/25 04:30:24;;;;;;;27.07;16.80;;;2.10;99.90;;;;;;5029838;28;20186;-65
2021/11/25 04:35:35;;;;;;;30.67;17.20;;;2.00;99.90;;;;;;5030618;28;20436;-66
2021/11/25 04:38:04;;;;;;;25.33;15.57;;;2.20;99.90;;;;;;5012294;28;20792;-66
2021/11/25 04:40:34;;;;;;;28.57;17.00;;;2.30;99.90;;;;;;5033383;28;20563;-65
2021/11/25 04:43:00;;;;;;;27.30;17.73;;;2.40;99.90;;;;;;5031552;28;20479;-66
2021/11/25 04:45:26;;;;;;;29.10;17.03;;;2.30;99.90;;;;;;5029093;28;20520;-66
2021/11/25 04:47:52;;;;;;;28.87;18.27;;;2.30;99.90;;;;;;5017316;28;21001;-65
2021/11/25 04:50:17;;;;;;;24.03;16.83;;;2.40;99.90;;;;;;5030293;28;20182;-65
2021/11/25 04:52:43;;;;;;;30.53;18.80;;;2.50;99.90;;;;;;5015869;28;20174;-66
2021/11/25 04:55:09;;;;;;;32.83;17.70;;;2.50;99.90;;;;;;5013115;28;20221;-66
2021/11/25 04:57:34;;;;;;;30.70;17.17;;;2.60;99.90;;;;;;5025801;28;20216;-66
2021/11/25 05:00:00;;;;;;;24.40;16.37;;;2.60;99.90;;;;;;5009932;28;20618;-66
2021/11/25 05:02:25;;;;;;;27.00;17.77;;;2.60;99.90;;;;;;5013386;28;20201;-66
2021/11/25 05:04:51;;;;;;;28.20;16.80;;;2.40;99.90;;;;;;5021388;28;20187;-65
2021/11/25 05:07:16;;;;;;;24.87;17.53;;;2.40;99.90;;;;;;5019380;28;20174;-66
2021/11/25 05:09:42;;;;;;;28.63;18.57;;;2.50;99.90;;;;;;5017315;28;20237;-66
2021/11/25 05:12:08;;;;;;;29.43;17.53;;;2.50;99.90;;;;;;5012953;28;20214;-66
2021/11/25 05:14:33;;;;;;;29.67;18.23;;;2.50;99.90;;;;;;5014266;28;20183;-66
2021/11/25 05:16:59;;;;;;;28.17;17.83;;;2.40;99.90;;;;;;5025291;28;20186;-66
2021/11/25 05:19:24;;;;;;;28.03;16.57;;;2.40;99.90;;;;;;5029080;28;20206;-66
2021/11/25 05:21:50;;;;;;;30.00;17.33;;;2.50;99.90;;;;;;5022626;28;20195;-66
2021/11/25 05:24:18;;;;;;;32.97;19.67;;;2.60;99.90;;;;;;5023189;28;20186;-66
2021/11/25 05:26:44;;;;;;;31.03;18.70;;;2.50;99.90;;;;;;5012100;28;20175;-66
2021/11/25 05:29:09;;;;;;;30.60;19.30;;;2.50;99.90;;;;;;5014113;28;20560;-66
2021/11/25 05:31:35;;;;;;;24.97;17.73;;;2.50;99.90;;;;;;5018773;28;20552;-66
2021/11/25 05:34:01;;;;;;;30.63;18.40;;;2.60;99.90;;;;;;5026782;28;20579;-66
2021/11/25 05:36:26;;;;;;;27.17;16.63;;;2.60;99.90;;;;;;5017360;28;20178;-66
2021/11/25 05:38:52;;;;;;;26.67;17.87;;;2.60;99.90;;;;;;5028148;28;20224;-66
2021/11/25 05:41:17;;;;;;;30.07;17.27;;;2.50;99.90;;;;;;5027137;28;20616;-66
2021/11/25 05:43:43;;;;;;;28.20;17.43;;;2.40;99.90;;;;;;5026549;28;20874;-65
2021/11/25 05:46:08;;;;;;;26.90;17.70;;;2.30;99.90;;;;;;5011233;28;20190;-66
2021/11/25 05:48:34;;;;;;;32.33;18.37;;;2.30;99.90;;;;;;5024823;28;20232;-66
2021/11/25 05:51:00;;;;;;;31.73;20.27;;;2.40;99.90;;;;;;5012403;28;20198;-66
2021/11/25 05:53:25;;;;;;;32.27;19.10;;;2.40;99.90;;;;;;5013311;28;20225;-66
2021/11/25 05:55:51;;;;;;;23.00;16.80;;;2.30;99.90;;;;;;5019131;28;20824;-66
2021/11/25 05:58:17;;;;;;;28.97;18.53;;;2.50;99.90;;;;;;5019738;28;20209;-66
2021/11/25 06:00:43;;;;;;;32.80;19.37;;;2.50;99.90;;;;;;5018520;28;20208;-65
2021/11/25 06:03:09;;;;;;;27.20;18.00;;;2.50;99.90;;;;;;5008170;28;20644;-66
2021/11/25 06:05:34;;;;;;;25.07;16.73;;;2.50;99.90;;;;;;5012651;28;20444;-66
2021/11/25 06:08:02;;;;;;;24.60;17.20;;;2.60;99.90;;;;;;5023948;28;20443;-66
2021/11/25 06:10:28;;;;;;;32.00;18.50;;;2.50;99.90;;;;;;5031752;28;20244;-66
2021/11/25 06:12:54;;;;;;;32.10;17.80;;;2.60;99.90;;;;;;5030322;28;20421;-66
2021/11/25 06:15:20;;;;;;;26.20;17.23;;;2.60;99.90;;;;;;5024381;28;20433;-66
2021/11/25 06:17:46;;;;;;;27.93;18.43;;;2.70;99.90;;;;;;5006737;28;20438;-66
2021/11/25 06:20:14;;;;;;;30.23;18.23;;;2.70;99.90;;;;;;5008558;28;20450;-66
2021/11/25 06:22:42;;;;;;;28.80;17.23;;;2.70;99.90;;;;;;5025718;28;20433;-66
2021/11/25 06:25:09;;;;;;;30.97;18.07;;;2.70;99.90;;;;;;5015598;28;20466;-66
2021/11/25 06:27:34;;;;;;;25.07;16.97;;;2.80;99.90;;;;;;5028506;28;20421;-66
2021/11/25 06:30:01;;;;;;;28.50;18.17;;;2.80;99.90;;;;;;5023173;28;20449;-66
2021/11/25 06:32:26;;;;;;;26.93;17.47;;;2.70;99.90;;;;;;5014046;28;20201;-65
2021/11/25 06:34:52;;;;;;;31.67;18.97;;;2.70;99.90;;;;;;5015665;28;20437;-66
2021/11/25 06:37:17;;;;;;;29.00;17.73;;;2.60;99.90;;;;;;5023669;28;20178;-66
2021/11/25 06:39:43;;;;;;;31.00;18.37;;;2.60;99.90;;;;;;5024649;28;20197;-66
2021/11/25 06:42:08;;;;;;;26.90;18.40;;;2.70;99.90;;;;;;5016319;28;20246;-66
2021/11/25 06:44:34;;;;;;;30.87;19.40;;;2.70;99.90;;;;;;5004340;28;20196;-66
2021/11/25 06:47:00;;;;;;;32.33;19.10;;;2.80;99.90;;;;;;5011333;28;20185;-66
2021/11/25 06:49:25;;;;;;;30.00;19.50;;;2.80;99.90;;;;;;5015325;28;20201;-66
2021/11/25 06:51:51;;;;;;;32.90;19.37;;;2.80;99.90;;;;;;5014730;28;20565;-66
2021/11/25 06:54:17;;;;;;;27.10;17.33;;;2.80;99.90;;;;;;5014613;28;20261;-66
2021/11/25 06:56:42;;;;;;;29.20;17.57;;;2.80;99.90;;;;;;5009746;28;20594;-65
2021/11/25 06:59:08;;;;;;;30.33;18.50;;;2.80;99.90;;;;;;5015827;28;20337;-66
2021/11/25 07:01:33;;;;;;;26.53;17.43;;;2.80;99.90;;;;;;5015614;28;20171;-66
2021/11/25 07:03:59;;;;;;;32.50;21.13;;;2.80;99.90;;;;;;5015353;28;20266;-66
2021/11/25 07:06:25;;;;;;;27.37;16.73;;;2.80;99.90;;;;;;5014790;28;20189;-66
2021/11/25 07:08:50;;;;;;;35.40;18.60;;;2.70;99.90;;;;;;5021262;28;20214;-67
2021/11/25 07:11:16;;;;;;;28.70;20.20;;;2.70;99.90;;;;;;5017700;28;20671;-67
2021/11/25 07:13:41;;;;;;;33.70;21.07;;;2.80;99.90;;;;;;5022430;28;20205;-67
2021/11/25 07:16:07;;;;;;;27.90;17.97;;;2.80;99.90;;;;;;5023928;28;20639;-67
2021/11/25 07:18:33;;;;;;;36.63;21.83;;;2.90;99.90;;;;;;5012660;28;20206;-67
2021/11/25 07:20:59;;;;;;;29.87;20.07;;;2.90;99.90;;;;;;5020754;28;20460;-68
2021/11/25 07:23:25;;;;;;;29.83;19.93;;;2.90;99.90;;;;;;5015846;28;20461;-68
2021/11/25 07:25:51;;;;;;;36.43;20.90;;;2.80;99.90;;;;;;5006056;28;20677;-68
2021/11/25 07:28:16;;;;;;;32.50;19.83;;;2.80;99.90;;;;;;5024796;28;20503;-68
2021/11/25 07:30:42;;;;;;;30.50;18.87;;;2.90;99.90;;;;;;4984814;28;20215;-67
2021/11/25 07:33:08;;;;;;;30.70;20.03;;;2.80;99.90;;;;;;5004058;28;20284;-67
2021/11/25 07:35:33;;;;;;;30.40;18.77;;;2.80;99.90;;;;;;5032911;28;20273;-67
2021/11/25 07:38:00;;;;;;;29.77;18.70;;;2.80;99.90;;;;;;5012671;28;20721;-67
2021/11/25 07:40:25;;;;;;;29.43;18.37;;;2.80;99.90;;;;;;5010171;28;20174;-67
2021/11/25 07:42:52;;;;;;;29.07;18.63;;;2.80;99.90;;;;;;5010157;28;20430;-68
2021/11/25 07:45:19;;;;;;;32.13;17.40;;;2.90;99.90;;;;;;5009102;28;20644;-68
2021/11/25 07:47:44;;;;;;;28.23;17.80;;;2.90;99.90;;;;;;5012785;28;20425;-68
2021/11/25 07:50:15;;;;;;;30.77;18.93;;;3.00;99.90;;;;;;5017733;28;20947;-67
2021/11/25 07:52:41;;;;;;;29.70;20.17;;;3.00;99.90;;;;;;5025060;28;20183;-67
2021/11/25 07:55:09;;;;;;;25.60;18.13;;;3.10;99.90;;;;;;5025380;28;20428;-67
2021/11/25 07:57:35;;;;;;;29.50;20.27;;;3.00;99.90;;;;;;5014497;28;20492;-67
2021/11/25 08:00:01;;;;;;;29.87;18.20;;;3.00;99.90;;;;;;5011610;28;20979;-67
2021/11/25 08:02:27;;;;;;;33.07;19.63;;;3.10;99.90;;;;;;5013004;28;20190;-67
2021/11/25 08:04:53;;;;;;;23.97;17.23;;;3.00;99.90;;;;;;5013237;28;20239;-68
2021/11/25 08:07:18;;;;;;;29.20;16.30;;;3.00;99.90;;;;;;5005423;28;20549;-68
2021/11/25 08:09:44;;;;;;;26.40;16.37;;;3.00;99.90;;;;;;5012030;28;20205;-68
2021/11/25 08:12:10;;;;;;;30.60;17.13;;;2.90;99.90;;;;;;5013257;28;20199;-67
2021/11/25 08:14:35;;;;;;;26.53;17.07;;;2.80;99.90;;;;;;5022320;28;20449;-67
2021/11/25 08:17:01;;;;;;;30.07;18.00;;;2.80;99.90;;;;;;5013830;28;20190;-67
2021/11/25 08:19:27;;;;;;;27.33;16.47;;;2.90;99.90;;;;;;5017575;28;20217;-68
2021/11/25 08:21:54;;;;;;;29.57;18.07;;;2.80;99.90;;;;;;5021872;28;20555;-67
2021/11/25 08:24:19;;;;;;;32.80;17.30;;;2.70;99.90;;;;;;5014795;28;20447;-68
2021/11/25 08:26:45;;;;;;;27.80;16.80;;;2.70;99.90;;;;;;5013882;28;20441;-68
2021/11/25 08:29:11;;;;;;;33.57;18.50;;;2.70;99.90;;;;;;5016934;28;20628;-68
2021/11/25 08:31:36;;;;;;;30.70;17.40;;;2.70;99.90;;;;;;5024572;28;20214;-68
2021/11/25 08:34:02;;;;;;;26.07;17.53;;;2.90;99.90;;;;;;5014293;28;20560;-68
2021/11/25 08:36:28;;;;;;;27.03;17.70;;;3.00;99.90;;;;;;5018083;28;20179;-68
2021/11/25 08:38:54;;;;;;;29.93;17.17;;;3.00;99.90;;;;;;5019196;28;20469;-68
2021/11/25 08:41:20;;;;;;;29.67;17.63;;;3.00;99.90;;;;;;5021363;28;20340;-67
2021/11/25 08:43:46;;;;;;;29.23;17.90;;;3.10;99.90;;;;;;5029207;28;20521;-67
2021/11/25 08:46:11;;;;;;;28.50;17.03;;;3.00;99.90;;;;;;5019136;28;20496;-67
2021/11/25 08:48:37;;;;;;;29.93;17.80;;;3.00;99.90;;;;;;5009976;28;20313;-68
2021/11/25 08:51:04;;;;;;;31.53;18.53;;;3.00;99.90;;;;;;5004998;28;20211;-67
2021/11/25 08:53:31;;;;;;;28.77;18.67;;;2.90;99.90;;;;;;5015370;28;20548;-68
2021/11/25 08:55:57;;;;;;;28.70;18.30;;;2.90;99.90;;;;;;5020839;28;20428;-67
2021/11/25 08:58:23;;;;;;;30.87;18.00;;;2.90;99.90;;;;;;5018122;28;20466;-68
2021/11/25 09:00:48;;;;;;;32.50;18.83;;;3.00;99.90;;;;;;5011701;28;20449;-67
2021/11/25 09:03:14;;;;;;;30.23;16.70;;;3.10;99.90;;;;;;5019411;28;20182;-67
2021/11/25 09:05:40;;;;;;;33.80;19.83;;;3.10;99.90;;;;;;5020706;28;20193;-68
2021/11/25 09:08:05;;;;;;;29.97;21.37;;;3.10;99.90;;;;;;5014001;28;20241;-68
2021/11/25 09:10:33;;;;;;;28.87;18.13;;;3.20;99.90;;;;;;5009962;28;20233;-67
2021/11/25 09:13:01;;;;;;;30.30;17.73;;;3.30;99.90;;;;;;5019625;28;20175;-68
2021/11/25 09:15:27;;;;;;;30.30;16.60;;;3.30;99.90;;;;;;5019022;28;20464;-67
2021/11/25 09:17:53;;;;;;;28.57;17.23;;;3.40;99.90;;;;;;5012770;28;20496;-68
2021/11/25 09:20:19;;;;;;;26.83;16.33;;;3.50;99.90;;;;;;5008975;23;20307;-69
2021/11/25 09:22:44;;;;;;;28.30;16.40;;;3.50;99.90;;;;;;4989305;28;20901;-67
2021/11/25 09:25:10;;;;;;;27.70;17.70;;;3.50;99.90;;;;;;4992854;28;20183;-68
2021/11/25 09:27:35;;;;;;;29.50;16.13;;;3.60;99.90;;;;;;4993285;28;20254;-67
2021/11/25 09:30:01;;;;;;;30.43;18.00;;;3.50;99.90;;;;;;5003939;28;20325;-68
2021/11/25 09:32:27;;;;;;;24.67;17.30;;;3.60;99.90;;;;;;5012876;28;20698;-68
2021/11/25 09:34:53;;;;;;;30.30;19.17;;;3.50;99.90;;;;;;5011382;28;20600;-69
2021/11/25 09:37:19;;;;;;;30.37;17.63;;;3.60;99.90;;;;;;5013457;28;20217;-68
2021/11/25 09:39:44;;;;;;;24.80;16.17;;;3.60;99.90;;;;;;5010410;28;20499;-67
2021/11/25 09:42:10;;;;;;;28.20;17.00;;;3.70;99.90;;;;;;5024299;28;20520;-68
2021/11/25 09:44:36;;;;;;;30.13;18.50;;;3.80;99.90;;;;;;5012503;28;20183;-68
2021/11/25 09:47:03;;;;;;;27.77;16.87;;;3.60;99.90;;;;;;5021271;28;20441;-67
2021/11/25 09:49:29;;;;;;;26.40;17.87;;;3.40;99.90;;;;;;5021914;28;20233;-68
2021/11/25 09:51:55;;;;;;;27.43;16.27;;;3.50;99.90;;;;;;5013894;28;20483;-68
2021/11/25 09:54:21;;;;;;;26.93;16.63;;;3.60;99.90;;;;;;5011822;28;20807;-68
2021/11/25 09:56:49;;;;;;;23.80;16.33;;;3.80;99.90;;;;;;5013194;28;20460;-68
2021/11/25 09:59:15;;;;;;;29.20;18.10;;;3.70;99.90;;;;;;5015814;28;20536;-68
2021/11/25 10:01:41;;;;;;;27.87;16.43;;;3.70;99.90;;;;;;5016312;28;20432;-68
2021/11/25 10:04:06;;;;;;;27.40;16.57;;;3.70;99.90;;;;;;5018194;28;20758;-68
2021/11/25 10:06:34;;;;;;;29.37;19.33;;;3.80;99.90;;;;;;5008139;28;20284;-68
2021/11/25 10:09:00;;;;;;;26.03;16.93;;;3.80;99.90;;;;;;5004126;28;20194;-69
2021/11/25 10:11:37;;;;;;;31.30;19.20;;;3.80;99.90;;;;;;5006357;28;20469;-68
2021/11/25 10:14:07;;;;;;;40.00;22.27;;;3.50;99.90;;;;;;5018760;28;20433;-68
2021/11/25 10:16:37;;;;;;;32.67;19.33;;;3.60;99.90;;;;;;5017354;28;20456;-68
2021/11/25 10:19:17;;;;;;;32.30;17.73;;;3.50;99.90;;;;;;5004787;28;20986;-67
2021/11/25 10:21:52;;;;;;;30.20;19.63;;;3.50;99.90;;;;;;5021453;28;20432;-69
2021/11/25 10:24:44;;;;;;;31.47;19.10;;;3.50;99.90;;;;;;5017047;28;20432;-68
2021/11/25 10:27:25;;;;;;;27.80;18.33;;;3.70;99.90;;;;;;5001530;28;20445;-71
2021/11/25 10:30:12;;;;;;;27.07;17.20;;;3.60;99.90;;;;;;5006325;28;20449;-68
2021/11/25 10:32:38;;;;;;;27.70;16.40;;;3.70;99.90;;;;;;5015953;28;20807;-70
2021/11/25 10:35:30;;;;;;;27.90;17.40;;;3.70;99.90;;;;;;5011981;28;20418;-69
2021/11/25 10:38:45;;;;;;;30.13;19.17;;;3.60;99.90;;;;;;5008388;28;20434;-70
2021/11/25 10:40:46;;;;;;;28.80;17.47;;;3.60;99.90;;;;;;4999897;28;20433;-71
2021/11/25 10:43:29;;;;;;;33.10;17.67;;;3.70;99.90;;;;;;5012997;28;20925;-71
2021/11/25 10:45:54;;;;;;;31.23;17.27;;;3.80;99.90;;;;;;5002971;28;20228;-69
2021/11/25 10:48:35;;;;;;;29.90;18.23;;;3.70;99.90;;;;;;5019556;28;20943;-69
2021/11/25 10:51:20;;;;;;;31.37;18.70;;;3.60;99.90;;;;;;5015427;28;20206;-69
2021/11/25 10:54:10;;;;;;;29.27;17.23;;;3.60;99.90;;;;;;5011660;28;20433;-69
2021/11/25 10:56:49;;;;;;;29.60;16.80;;;3.60;99.90;;;;;;5010846;28;20513;-69
2021/11/25 10:59:17;;;;;;;27.70;18.47;;;3.70;99.90;;;;;;5007318;28;20457;-70
2021/11/25 11:01:45;;;;;;;29.80;18.17;;;3.80;99.90;;;;;;5014214;28;20571;-68
2021/11/25 11:04:12;;;;;;;28.37;17.67;;;3.90;99.90;;;;;;5042969;28;20459;-69
2021/11/25 11:06:39;;;;;;;33.17;18.90;;;3.80;99.90;;;;;;5018578;28;20492;-69
2021/11/25 11:09:08;;;;;;;32.00;17.97;;;3.70;99.90;;;;;;5011024;28;20452;-70
2021/11/25 11:11:37;;;;;;;29.97;19.00;;;3.60;99.90;;;;;;5025818;28;20460;-67
2021/11/25 11:16:49;;;;;;;30.30;17.80;;;3.70;99.90;;;;;;5003387;28;20483;-68
2021/11/25 11:19:16;;;;;;;33.77;19.37;;;3.70;99.90;;;;;;5012479;28;20464;-68
2021/11/25 11:21:50;;;;;;;27.43;17.57;;;3.90;99.90;;;;;;5009118;28;20433;-69
2021/11/25 11:24:32;;;;;;;30.17;19.87;;;3.90;99.90;;;;;;5016898;28;20473;-69
2021/11/25 11:27:04;;;;;;;28.50;17.97;;;4.00;99.90;;;;;;5024414;28;20507;-69
2021/11/25 11:29:32;;;;;;;27.67;18.10;;;4.10;99.90;;;;;;5021837;28;20514;-68
2021/11/25 11:32:03;;;;;;;31.00;19.63;;;4.00;99.90;;;;;;5021904;28;20535;-70
2021/11/25 11:34:29;;;;;;;29.87;18.50;;;4.00;99.90;;;;;;5023581;28;20444;-70
2021/11/25 11:36:56;;;;;;;31.37;19.00;;;4.20;99.90;;;;;;5023310;28;20925;-68
2021/11/25 11:39:25;;;;;;;25.10;16.73;;;4.30;99.90;;;;;;5022667;28;20461;-74
2021/11/25 11:41:53;;;;;;;31.93;18.40;;;4.50;99.90;;;;;;5010506;28;20475;-71
2021/11/25 11:44:22;;;;;;;24.90;16.43;;;4.70;99.90;;;;;;5011254;28;20445;-70
2021/11/25 11:47:00;;;;;;;25.00;17.00;;;4.60;99.90;;;;;;5025829;28;20429;-70
2021/11/25 11:49:26;;;;;;;26.23;18.23;;;4.70;99.90;;;;;;5016328;28;20457;-69
2021/11/25 11:52:15;;;;;;;25.47;15.43;;;4.70;99.90;;;;;;5025343;28;21034;-69
2021/11/25 11:54:52;;;;;;;28.10;17.90;;;4.80;99.90;;;;;;5018099;28;20440;-70
2021/11/25 11:57:39;;;;;;;29.00;18.03;;;4.80;99.90;;;;;;5025810;28;20439;-70
2021/11/25 12:00:20;;;;;;;25.63;17.53;;;5.00;99.90;;;;;;5009281;28;20480;-69
2021/11/25 12:02:51;;;;;;;24.60;17.00;;;5.10;99.90;;;;;;5014834;28;20433;-70
2021/11/25 12:05:50;;;;;;;28.53;17.70;;;5.00;99.90;;;;;;5026112;28;20438;-70
2021/11/25 12:08:24;;;;;;;29.17;17.33;;;4.90;99.90;;;;;;4981293;28;20454;-69
2021/11/25 12:10:56;;;;;;;25.10;18.57;;;5.20;99.90;;;;;;5014661;28;20457;-68
2021/11/25 12:13:22;;;;;;;22.20;16.03;;;5.30;99.90;;;;;;5032170;28;20953;-69
2021/11/25 12:15:49;;;;;;;24.77;17.40;;;5.10;99.90;;;;;;5015697;28;20430;-70
2021/11/25 12:18:33;;;;;;;26.10;16.93;;;4.80;99.90;;;;;;5025740;28;20531;-70
2021/11/25 12:21:01;;;;;;;25.27;16.97;;;4.70;99.90;;;;;;5018518;28;20448;-69
2021/11/25 12:23:33;;;;;;;24.30;16.60;;;4.70;99.90;;;;;;5016006;28;20433;-70
2021/11/25 12:25:59;;;;;;;26.10;16.40;;;4.80;99.90;;;;;;5011239;28;20424;-70
2021/11/25 12:28:29;;;;;;;28.77;16.60;;;4.90;99.90;;;;;;5012820;28;20504;-69
2021/11/25 12:33:46;;;;;;;29.20;16.70;;;5.00;99.90;;;;;;5014060;28;20421;-69
2021/11/25 12:36:49;;;;;;;31.60;19.93;;;4.80;99.90;;;;;;5012629;28;20876;-70
2021/11/25 12:39:34;;;;;;;27.50;19.50;;;4.60;99.90;;;;;;4930649;29;20501;-69
2021/11/25 12:42:00;;;;;;;28.83;18.27;;;4.60;99.90;;;;;;5008457;28;20438;-69
2021/11/25 12:44:26;;;;;;;28.30;18.43;;;4.50;99.90;;;;;;5013979;28;20825;-70
2021/11/25 12:46:51;;;;;;;25.20;18.80;;;4.70;99.90;;;;;;5013554;28;20229;-70
2021/11/25 12:49:19;;;;;;;26.37;18.30;;;4.80;99.90;;;;;;5015048;28;20663;-70
2021/11/25 12:51:44;;;;;;;26.60;17.70;;;4.90;99.90;;;;;;5013545;28;20202;-69